Time;durP1;ratioP1;P1;durP2;ratioP2;P2;SDS_P1;SDS_P2;PMS_P1;PMS_P2;Temp;Humidity;BMP_temperature;BMP_pressure;BME280_temperature;BME280_humidity;BME280_pressure;Samples;Min_cycle;Max_cycle;Signal;HPM_P1;HPM_P2
2022/02/20 00:00:37;;;;;;;1.77;1.20;;;6.10;99.90;;;;;;5099366;28;20036;-68
2022/02/20 00:03:03;;;;;;;4.57;2.17;;;6.10;99.90;;;;;;5102450;28;20483;-67
2022/02/20 00:05:29;;;;;;;6.20;1.40;;;6.20;99.90;;;;;;5097481;27;20118;-67
2022/02/20 00:07:54;;;;;;;3.15;1.20;;;6.20;99.90;;;;;;5097125;28;20039;-68
2022/02/20 00:10:20;;;;;;;5.10;1.10;;;6.20;99.90;;;;;;5080591;28;20020;-68
2022/02/20 00:12:46;;;;;;;7.53;1.83;;;6.30;99.90;;;;;;5101370;28;20051;-67
2022/02/20 00:15:11;;;;;;;7.20;2.08;;;6.40;99.90;;;;;;5100434;28;20062;-67
2022/02/20 00:17:37;;;;;;;4.25;1.65;;;6.40;99.90;;;;;;5099729;28;20021;-67
2022/02/20 00:20:04;;;;;;;7.13;2.45;;;6.40;99.90;;;;;;5101854;28;20038;-67
2022/02/20 00:22:30;;;;;;;145.65;88.43;;;6.50;99.90;;;;;;5101299;28;20027;-67
2022/02/20 00:24:56;;;;;;;46.05;42.67;;;6.50;99.90;;;;;;5100827;28;20490;-67
2022/02/20 00:27:23;;;;;;;147.43;85.07;;;6.50;99.90;;;;;;5097771;28;20473;-67
2022/02/20 00:29:48;;;;;;;3.53;1.27;;;6.60;99.90;;;;;;5104134;28;20027;-67
2022/02/20 00:32:14;;;;;;;11.45;2.95;;;6.60;99.90;;;;;;5079629;28;20027;-67
2022/02/20 00:34:40;;;;;;;33.85;9.45;;;6.60;99.90;;;;;;5104152;28;20564;-67
2022/02/20 00:37:06;;;;;;;6.47;1.60;;;6.60;99.90;;;;;;5083698;28;20470;-67
2022/02/20 00:39:32;;;;;;;2.38;1.23;;;6.60;99.90;;;;;;5080813;28;20103;-68
2022/02/20 00:41:58;;;;;;;6.50;2.55;;;6.60;99.90;;;;;;5099099;28;20031;-67
2022/02/20 00:44:23;;;;;;;6.50;2.80;;;6.50;99.90;;;;;;5102259;28;20472;-67
2022/02/20 00:46:49;;;;;;;10.63;4.57;;;6.40;99.90;;;;;;5099231;28;20035;-67
2022/02/20 00:49:15;;;;;;;7.50;3.20;;;6.40;99.90;;;;;;5099618;28;20494;-67
2022/02/20 00:51:40;;;;;;;11.00;4.65;;;6.40;99.90;;;;;;5097685;28;20671;-67
2022/02/20 00:54:09;;;;;;;4.63;2.40;;;6.40;99.90;;;;;;5099317;28;20024;-67
2022/02/20 00:56:36;;;;;;;5.45;2.17;;;6.30;99.90;;;;;;5094918;28;20099;-67
2022/02/20 00:59:06;;;;;;;7.90;3.13;;;6.30;99.90;;;;;;5099210;28;20607;-67
2022/02/20 01:01:32;;;;;;;3.45;1.50;;;6.20;99.90;;;;;;5079073;28;20047;-67
2022/02/20 01:03:58;;;;;;;2.63;0.98;;;6.20;99.90;;;;;;5098243;28;20064;-67
2022/02/20 01:06:24;;;;;;;6.72;2.00;;;6.20;99.90;;;;;;5099083;28;20035;-67
2022/02/20 01:08:50;;;;;;;2.17;1.45;;;6.10;99.90;;;;;;5098480;28;20387;-67
2022/02/20 01:11:16;;;;;;;10.18;2.40;;;6.10;99.90;;;;;;5101256;28;20063;-67
2022/02/20 01:13:42;;;;;;;136.55;123.30;;;6.10;99.90;;;;;;5101958;28;20039;-67
2022/02/20 01:16:08;;;;;;;4.80;1.73;;;6.10;99.90;;;;;;5099444;28;20066;-67
2022/02/20 01:18:34;;;;;;;3.78;1.48;;;6.00;99.90;;;;;;5102662;28;20032;-67
2022/02/20 01:20:59;;;;;;;9.65;2.10;;;6.00;99.90;;;;;;5097536;28;20396;-67
2022/02/20 01:23:25;;;;;;;5.00;1.60;;;5.90;99.90;;;;;;5099667;28;20028;-67
2022/02/20 01:25:51;;;;;;;4.40;1.27;;;5.80;99.90;;;;;;5083923;28;20066;-67
2022/02/20 01:28:17;;;;;;;1.98;1.00;;;5.80;99.90;;;;;;5096908;28;20084;-67
2022/02/20 01:30:43;;;;;;;2.47;1.30;;;5.70;99.90;;;;;;5088690;28;20032;-67
2022/02/20 01:33:09;;;;;;;2.97;1.42;;;5.70;99.90;;;;;;5098404;28;20465;-67
2022/02/20 01:35:34;;;;;;;5.95;1.75;;;5.70;99.90;;;;;;5103691;28;20365;-67
2022/02/20 01:38:00;;;;;;;3.42;1.52;;;5.70;99.90;;;;;;5087360;28;20019;-67
2022/02/20 01:40:30;;;;;;;2.95;1.20;;;5.70;99.90;;;;;;5096550;28;20050;-67
2022/02/20 01:42:56;;;;;;;5.40;1.30;;;5.60;99.90;;;;;;5100069;28;20035;-67
2022/02/20 01:45:22;;;;;;;5.07;1.25;;;5.60;99.90;;;;;;5101759;28;20021;-67
2022/02/20 01:47:48;;;;;;;5.18;1.63;;;5.60;99.90;;;;;;5088997;28;20019;-67
2022/02/20 01:50:16;;;;;;;6.00;2.17;;;5.60;99.90;;;;;;5101659;28;20034;-67
2022/02/20 01:52:41;;;;;;;3.65;1.50;;;5.60;99.90;;;;;;5100169;28;20020;-67
2022/02/20 01:55:08;;;;;;;2.28;1.60;;;5.50;99.90;;;;;;5100359;28;20455;-67
2022/02/20 01:57:36;;;;;;;3.78;1.45;;;5.50;99.90;;;;;;5098318;28;20034;-67
2022/02/20 02:00:05;;;;;;;7.95;2.25;;;5.40;99.90;;;;;;5103693;28;20024;-67
2022/02/20 02:02:32;;;;;;;0.98;0.90;;;5.50;99.90;;;;;;5102119;28;20024;-67
2022/02/20 02:04:57;;;;;;;5.50;1.67;;;5.50;99.90;;;;;;5100945;28;20066;-67
2022/02/20 02:07:23;;;;;;;2.85;1.58;;;5.50;99.90;;;;;;5104421;28;20059;-67
2022/02/20 02:09:49;;;;;;;5.82;2.05;;;5.40;99.90;;;;;;5103994;28;20039;-67
2022/02/20 02:12:14;;;;;;;4.85;2.38;;;5.50;99.90;;;;;;5100304;28;20020;-67
2022/02/20 02:14:57;;;;;;;3.08;1.42;;;5.50;99.90;;;;;;5107195;28;20043;-67
2022/02/20 02:17:23;;;;;;;7.45;2.53;;;5.40;99.90;;;;;;5105461;27;20118;-66
2022/02/20 02:19:49;;;;;;;5.07;2.33;;;5.50;99.90;;;;;;5104293;27;20502;-66
2022/02/20 02:22:18;;;;;;;6.88;1.88;;;5.40;99.90;;;;;;5109032;27;20027;-66
2022/02/20 02:24:44;;;;;;;6.78;1.52;;;5.50;99.90;;;;;;5104671;27;20024;-66
2022/02/20 02:27:12;;;;;;;2.00;1.30;;;5.40;99.90;;;;;;5105885;27;20031;-66
2022/02/20 02:29:38;;;;;;;1.20;0.98;;;5.40;99.90;;;;;;5102096;27;20119;-66
2022/02/20 02:32:04;;;;;;;8.55;1.95;;;5.40;99.90;;;;;;5084513;27;20614;-66
2022/02/20 02:34:30;;;;;;;4.03;1.67;;;5.40;99.90;;;;;;5106056;28;20035;-66
2022/02/20 02:36:55;;;;;;;1.35;0.93;;;5.40;99.90;;;;;;5103582;28;20354;-67
2022/02/20 02:39:21;;;;;;;1.50;1.25;;;5.40;99.90;;;;;;5101835;27;20550;-66
2022/02/20 02:41:47;;;;;;;1.35;0.90;;;5.40;99.90;;;;;;5101882;27;20028;-66
2022/02/20 02:44:13;;;;;;;11.20;2.22;;;5.40;99.90;;;;;;5088902;28;20051;-66
2022/02/20 02:46:38;;;;;;;6.68;1.75;;;5.40;99.90;;;;;;5099349;28;20026;-66
2022/02/20 02:49:04;;;;;;;5.18;2.17;;;5.30;99.90;;;;;;5089629;28;20510;-66
2022/02/20 02:51:30;;;;;;;5.55;3.28;;;5.30;99.90;;;;;;5106242;27;20023;-66
2022/02/20 02:53:56;;;;;;;1.55;1.00;;;5.30;99.90;;;;;;5102702;27;20028;-67
2022/02/20 02:56:23;;;;;;;7.25;2.55;;;5.30;99.90;;;;;;5107073;27;20020;-67
2022/02/20 02:58:49;;;;;;;4.63;2.20;;;5.30;99.90;;;;;;5086906;27;20105;-66
2022/02/20 03:01:15;;;;;;;7.53;2.28;;;5.30;99.90;;;;;;5088695;28;20023;-66
2022/02/20 03:03:40;;;;;;;5.90;2.42;;;5.30;99.90;;;;;;5108142;27;20035;-66
2022/02/20 03:06:11;;;;;;;2.20;1.23;;;5.30;99.90;;;;;;5093884;27;20035;-66
2022/02/20 03:08:37;;;;;;;9.45;2.90;;;5.30;99.90;;;;;;5092808;28;20045;-66
2022/02/20 03:11:04;;;;;;;4.40;2.05;;;5.20;99.90;;;;;;5089937;27;20028;-66
2022/02/20 03:13:31;;;;;;;9.27;2.38;;;5.20;99.90;;;;;;5115143;27;20085;-66
2022/02/20 03:15:57;;;;;;;5.00;1.48;;;5.20;99.90;;;;;;5109105;27;20443;-67
2022/02/20 03:18:23;;;;;;;2.33;1.15;;;5.20;99.90;;;;;;5105606;27;20015;-66
2022/02/20 03:20:48;;;;;;;2.42;1.15;;;5.10;99.90;;;;;;5104571;28;20532;-66
2022/02/20 03:23:14;;;;;;;1.73;1.08;;;5.10;99.90;;;;;;5113005;27;20030;-66
2022/02/20 03:25:40;;;;;;;0.93;0.93;;;5.10;99.90;;;;;;5107581;28;20392;-67
2022/02/20 03:28:05;;;;;;;1.33;1.02;;;5.10;99.90;;;;;;5109042;27;20040;-66
2022/02/20 03:30:31;;;;;;;2.53;0.93;;;5.10;99.90;;;;;;5105977;27;20505;-67
2022/02/20 03:32:57;;;;;;;5.30;1.58;;;5.10;99.90;;;;;;5112168;27;20038;-66
2022/02/20 03:35:24;;;;;;;2.38;1.40;;;5.10;99.90;;;;;;5095663;28;20051;-66
2022/02/20 03:37:50;;;;;;;5.15;1.65;;;5.10;99.90;;;;;;5093110;27;20024;-66
2022/02/20 03:40:15;;;;;;;5.13;1.85;;;5.20;99.90;;;;;;5091910;28;20024;-66
2022/02/20 03:42:41;;;;;;;4.63;2.17;;;5.20;99.90;;;;;;5097172;28;20076;-66
2022/02/20 03:45:07;;;;;;;4.22;1.95;;;5.10;99.90;;;;;;5115238;27;20022;-66
2022/02/20 03:47:33;;;;;;;3.10;1.15;;;5.10;99.90;;;;;;5099150;28;20533;-66
2022/02/20 03:49:59;;;;;;;2.00;1.27;;;5.10;99.90;;;;;;5101971;28;20118;-66
2022/02/20 03:52:25;;;;;;;9.00;3.30;;;5.10;99.90;;;;;;5091188;28;20039;-66
2022/02/20 03:54:50;;;;;;;4.47;1.70;;;5.10;99.90;;;;;;5088251;28;20085;-66
2022/02/20 03:57:16;;;;;;;5.07;2.03;;;5.10;99.90;;;;;;5098311;28;20031;-66
2022/02/20 03:59:41;;;;;;;7.15;2.83;;;5.10;99.90;;;;;;5103368;28;20036;-66
2022/02/20 04:02:07;;;;;;;1.30;0.88;;;5.10;99.90;;;;;;5102987;28;20028;-66
2022/02/20 04:04:33;;;;;;;4.22;1.88;;;5.10;99.90;;;;;;5099614;28;20024;-66
2022/02/20 04:06:59;;;;;;;17.60;2.03;;;5.10;99.90;;;;;;5105513;28;20024;-66
2022/02/20 04:09:25;;;;;;;2.70;1.65;;;5.10;99.90;;;;;;5103827;28;20500;-67
2022/02/20 04:11:51;;;;;;;1.48;1.00;;;5.00;99.90;;;;;;5104997;28;20137;-67
2022/02/20 04:14:17;;;;;;;1.00;0.90;;;5.00;99.90;;;;;;5107597;28;20019;-67
2022/02/20 04:16:43;;;;;;;1.27;1.05;;;5.10;99.90;;;;;;5102675;28;20026;-67
2022/02/20 04:19:09;;;;;;;2.65;1.30;;;5.10;99.90;;;;;;5097158;28;20016;-67
2022/02/20 04:21:35;;;;;;;2.92;1.42;;;5.10;99.90;;;;;;5101799;27;20044;-67
2022/02/20 04:24:01;;;;;;;7.25;1.98;;;5.00;99.90;;;;;;5107638;27;20296;-67
2022/02/20 04:26:27;;;;;;;7.57;3.25;;;5.10;99.90;;;;;;5103595;27;20555;-66
2022/02/20 04:28:52;;;;;;;2.00;1.33;;;5.00;99.90;;;;;;5105188;28;20052;-67
2022/02/20 04:31:18;;;;;;;1.77;1.38;;;5.00;99.90;;;;;;5111178;27;20467;-66
2022/02/20 04:33:45;;;;;;;3.42;1.88;;;5.10;99.90;;;;;;5084195;28;20487;-67
2022/02/20 04:36:11;;;;;;;4.20;1.60;;;5.00;99.90;;;;;;5109273;27;20022;-67
2022/02/20 04:38:37;;;;;;;5.15;2.05;;;5.00;99.90;;;;;;5110779;27;20248;-66
2022/02/20 04:41:03;;;;;;;3.65;1.52;;;5.00;99.90;;;;;;5101073;28;20535;-67
2022/02/20 04:43:28;;;;;;;1.92;0.95;;;5.00;99.90;;;;;;5088388;28;20019;-66
2022/02/20 04:45:54;;;;;;;1.52;1.08;;;4.90;99.90;;;;;;5104510;28;20062;-66
2022/02/20 04:48:20;;;;;;;1.85;1.30;;;5.00;99.90;;;;;;5106939;28;20467;-66
2022/02/20 04:50:46;;;;;;;2.08;1.10;;;4.90;99.90;;;;;;5088640;28;20107;-66
2022/02/20 04:53:12;;;;;;;3.42;1.48;;;4.90;99.90;;;;;;5100512;28;20020;-66
2022/02/20 04:55:37;;;;;;;2.30;1.10;;;4.90;99.90;;;;;;5105539;28;20016;-66
2022/02/20 04:58:04;;;;;;;3.15;1.38;;;4.80;99.90;;;;;;5103467;28;20388;-66
2022/02/20 05:00:29;;;;;;;2.97;1.80;;;4.80;99.90;;;;;;5104627;28;20042;-66
2022/02/20 05:02:55;;;;;;;3.28;1.65;;;4.70;99.90;;;;;;5103623;28;20032;-66
2022/02/20 05:05:21;;;;;;;1.33;1.00;;;4.70;99.90;;;;;;5106340;28;20384;-67
2022/02/20 05:07:46;;;;;;;4.15;1.77;;;4.60;99.90;;;;;;5098086;28;20063;-66
2022/02/20 05:10:12;;;;;;;2.83;1.50;;;4.60;99.90;;;;;;5104573;28;20036;-66
2022/02/20 05:12:37;;;;;;;0.85;0.85;;;4.70;99.90;;;;;;5099917;28;20137;-67
2022/02/20 05:15:03;;;;;;;7.25;1.33;;;4.70;99.90;;;;;;5085515;28;20111;-66
2022/02/20 05:17:29;;;;;;;7.20;2.28;;;4.70;99.90;;;;;;5091538;28;20353;-67
2022/02/20 05:19:55;;;;;;;6.05;1.75;;;4.70;99.90;;;;;;5105968;28;20069;-66
2022/02/20 05:22:20;;;;;;;2.45;1.30;;;4.60;99.90;;;;;;5102446;28;20046;-66
2022/02/20 05:24:46;;;;;;;1.85;1.27;;;4.70;99.90;;;;;;5088899;28;20340;-67
2022/02/20 05:27:12;;;;;;;1.88;1.10;;;4.70;99.90;;;;;;5104606;28;20050;-66
2022/02/20 05:29:38;;;;;;;2.13;1.02;;;4.70;99.90;;;;;;5104991;28;20535;-66
2022/02/20 05:32:04;;;;;;;2.90;1.13;;;4.70;99.90;;;;;;5103805;28;20015;-66
2022/02/20 05:34:29;;;;;;;3.08;1.25;;;4.80;99.90;;;;;;5102278;28;20015;-67
2022/02/20 05:36:55;;;;;;;1.75;1.15;;;4.70;99.90;;;;;;5103776;28;20016;-67
2022/02/20 05:39:20;;;;;;;4.80;1.40;;;4.70;99.90;;;;;;5106704;27;20647;-68
2022/02/20 05:41:46;;;;;;;4.88;1.85;;;4.80;99.90;;;;;;5114373;27;20301;-68
2022/02/20 05:44:12;;;;;;;2.72;1.38;;;4.80;99.90;;;;;;5114252;27;20031;-68
2022/02/20 05:46:37;;;;;;;2.28;1.55;;;4.80;99.90;;;;;;5119962;27;20034;-68
2022/02/20 05:49:04;;;;;;;3.40;1.50;;;4.80;99.90;;;;;;5106241;27;20808;-69
2022/02/20 05:51:31;;;;;;;1.88;1.40;;;4.80;99.90;;;;;;5122881;27;20026;-69
2022/02/20 05:53:57;;;;;;;3.55;1.35;;;4.80;99.90;;;;;;5120280;27;20016;-69
2022/02/20 05:56:23;;;;;;;1.85;1.20;;;4.80;99.90;;;;;;5114200;27;20011;-68
2022/02/20 05:58:48;;;;;;;5.47;1.55;;;4.80;99.90;;;;;;5106606;28;20124;-69
2022/02/20 06:01:14;;;;;;;3.03;1.55;;;4.80;99.90;;;;;;5092364;27;20080;-68
2022/02/20 06:03:39;;;;;;;4.57;2.63;;;4.80;99.90;;;;;;5116244;27;20476;-69
2022/02/20 06:06:05;;;;;;;6.45;1.92;;;4.80;99.90;;;;;;5120634;27;20036;-69
2022/02/20 06:08:30;;;;;;;9.38;2.22;;;4.80;99.90;;;;;;5112117;27;20476;-69
2022/02/20 06:10:57;;;;;;;3.47;1.75;;;4.90;99.90;;;;;;5112826;27;20028;-69
2022/02/20 06:13:22;;;;;;;2.80;1.35;;;4.90;99.90;;;;;;5112324;27;20486;-69
2022/02/20 06:15:48;;;;;;;4.35;1.63;;;4.90;99.90;;;;;;5107597;27;20024;-69
2022/02/20 06:18:14;;;;;;;3.33;1.42;;;4.90;99.90;;;;;;5105734;27;20602;-69
2022/02/20 06:20:40;;;;;;;3.17;1.48;;;4.90;99.90;;;;;;5124707;27;20020;-68
2022/02/20 06:23:05;;;;;;;2.20;1.55;;;4.90;99.90;;;;;;5088481;28;20080;-68
2022/02/20 06:25:31;;;;;;;5.10;1.73;;;4.90;99.90;;;;;;5109642;27;20034;-69
2022/02/20 06:27:57;;;;;;;8.75;3.05;;;4.80;99.90;;;;;;5103215;27;20466;-69
2022/02/20 06:30:22;;;;;;;6.70;1.88;;;4.80;99.90;;;;;;5101118;28;20040;-69
2022/02/20 06:32:48;;;;;;;2.30;1.13;;;4.80;99.90;;;;;;5090974;27;20024;-69
2022/02/20 06:35:14;;;;;;;3.65;1.80;;;4.90;99.90;;;;;;5097333;27;20016;-68
2022/02/20 06:37:40;;;;;;;3.33;1.45;;;4.80;99.90;;;;;;5121574;27;20020;-69
2022/02/20 06:40:06;;;;;;;4.47;1.58;;;4.90;99.90;;;;;;5116956;27;20020;-69
2022/02/20 06:42:32;;;;;;;2.95;1.73;;;5.00;99.90;;;;;;5097871;28;20050;-69
2022/02/20 06:44:58;;;;;;;3.65;1.70;;;5.00;99.90;;;;;;5094137;28;20027;-69
2022/02/20 06:47:23;;;;;;;4.53;1.35;;;5.10;99.90;;;;;;5105275;27;20123;-69
2022/02/20 06:49:49;;;;;;;2.63;1.40;;;5.10;99.90;;;;;;5113394;27;20028;-69
2022/02/20 06:52:15;;;;;;;2.80;1.67;;;5.20;99.90;;;;;;5103625;28;20020;-69
2022/02/20 06:54:40;;;;;;;5.50;2.97;;;5.20;99.90;;;;;;5109166;27;20514;-69
2022/02/20 06:57:06;;;;;;;1.20;0.95;;;5.20;99.90;;;;;;5123300;27;20092;-69
2022/02/20 06:59:31;;;;;;;5.07;1.65;;;5.30;99.90;;;;;;5112672;27;20145;-69
2022/02/20 07:01:57;;;;;;;1.92;1.17;;;5.30;99.90;;;;;;5107997;27;20069;-69
2022/02/20 07:04:23;;;;;;;0.98;0.82;;;5.30;99.90;;;;;;5113846;27;20507;-70
2022/02/20 07:06:48;;;;;;;14.65;2.95;;;5.40;99.90;;;;;;5120988;27;20509;-69
2022/02/20 07:09:14;;;;;;;3.22;1.67;;;5.50;99.90;;;;;;5123393;27;20027;-70
2022/02/20 07:11:41;;;;;;;4.10;1.30;;;5.50;99.90;;;;;;5097108;28;20024;-70
2022/02/20 07:14:07;;;;;;;6.82;1.67;;;5.60;99.90;;;;;;5100535;28;20099;-69
2022/02/20 07:16:33;;;;;;;3.45;1.90;;;5.60;99.90;;;;;;5094558;28;20174;-70
2022/02/20 07:19:00;;;;;;;6.68;2.65;;;5.70;99.90;;;;;;5098938;28;20020;-70
2022/02/20 07:21:26;;;;;;;2.17;1.40;;;5.70;99.90;;;;;;5113228;27;20019;-69
2022/02/20 07:23:52;;;;;;;9.95;2.83;;;5.80;99.90;;;;;;5107538;27;20019;-69
2022/02/20 07:26:18;;;;;;;4.25;1.58;;;5.90;99.90;;;;;;5099950;27;20317;-69
2022/02/20 07:28:44;;;;;;;9.48;2.15;;;5.90;99.90;;;;;;5108293;27;20059;-69
2022/02/20 07:31:10;;;;;;;2.97;1.30;;;5.90;99.90;;;;;;5101959;28;20036;-69
2022/02/20 07:33:36;;;;;;;3.63;1.83;;;6.00;99.90;;;;;;5103668;28;20023;-69
2022/02/20 07:36:02;;;;;;;5.25;1.48;;;6.00;99.90;;;;;;5106963;28;20098;-69
2022/02/20 07:38:28;;;;;;;7.93;1.52;;;6.00;99.90;;;;;;5097614;27;20080;-69
2022/02/20 07:40:54;;;;;;;3.30;1.48;;;6.00;99.90;;;;;;5098594;27;20045;-69
2022/02/20 07:43:19;;;;;;;6.53;2.05;;;6.10;99.90;;;;;;5107327;27;20356;-70
2022/02/20 07:45:45;;;;;;;1.88;1.17;;;6.10;99.90;;;;;;5103989;28;20027;-70
2022/02/20 07:48:11;;;;;;;3.22;1.40;;;6.10;99.90;;;;;;5114384;27;20368;-70
2022/02/20 07:50:38;;;;;;;5.10;1.83;;;6.10;99.90;;;;;;5109522;27;20478;-70
2022/02/20 07:53:05;;;;;;;3.95;1.67;;;6.10;99.90;;;;;;5107258;27;20444;-69
2022/02/20 07:55:32;;;;;;;4.78;2.15;;;6.20;99.90;;;;;;5108452;27;20103;-70
2022/02/20 07:58:00;;;;;;;1.52;1.15;;;6.30;99.90;;;;;;5090960;28;20020;-70
2022/02/20 08:00:28;;;;;;;2.63;1.55;;;6.30;99.90;;;;;;5106866;27;20092;-70
2022/02/20 08:02:54;;;;;;;6.55;2.05;;;6.30;99.90;;;;;;5116078;27;20483;-70
2022/02/20 08:05:19;;;;;;;2.13;1.20;;;6.30;99.90;;;;;;5108999;27;20024;-70
2022/02/20 08:07:45;;;;;;;2.65;1.52;;;6.40;99.90;;;;;;5106945;27;20058;-69
2022/02/20 08:10:12;;;;;;;7.95;2.13;;;6.40;99.90;;;;;;5115588;27;20020;-69
2022/02/20 08:12:37;;;;;;;9.45;3.10;;;6.40;99.90;;;;;;5119403;27;20035;-69
2022/02/20 08:15:04;;;;;;;8.50;2.15;;;6.50;99.90;;;;;;5099380;28;20020;-69
2022/02/20 08:17:30;;;;;;;2.42;1.30;;;6.50;99.90;;;;;;5107129;27;20046;-69
2022/02/20 08:19:55;;;;;;;4.88;1.70;;;6.50;99.90;;;;;;5109810;27;20428;-70
2022/02/20 08:22:21;;;;;;;7.00;1.70;;;6.50;99.90;;;;;;5117382;27;20495;-70
2022/02/20 08:24:47;;;;;;;4.43;1.90;;;6.50;99.90;;;;;;5089102;28;20480;-70
2022/02/20 08:27:14;;;;;;;8.48;1.00;;;6.50;99.90;;;;;;5099448;28;20096;-69
2022/02/20 08:29:40;;;;;;;4.35;1.88;;;6.60;99.90;;;;;;5099254;28;20040;-70
2022/02/20 08:32:07;;;;;;;1.35;0.93;;;6.60;99.90;;;;;;5101262;28;20119;-70
2022/02/20 08:34:34;;;;;;;1.52;1.00;;;6.60;99.90;;;;;;5112329;27;20034;-70
2022/02/20 08:37:00;;;;;;;2.95;1.15;;;6.70;99.90;;;;;;5112807;27;20024;-70
2022/02/20 08:39:28;;;;;;;5.25;2.10;;;6.70;99.90;;;;;;5117358;27;20015;-70
2022/02/20 08:41:53;;;;;;;3.60;1.60;;;6.70;99.90;;;;;;5119897;27;20015;-70
2022/02/20 08:44:19;;;;;;;2.45;1.13;;;6.80;99.90;;;;;;5104129;28;20048;-70
2022/02/20 08:46:44;;;;;;;3.50;1.50;;;6.90;99.90;;;;;;5113175;27;20060;-70
2022/02/20 08:49:10;;;;;;;2.92;1.13;;;6.90;99.90;;;;;;5110294;27;20028;-70
2022/02/20 08:51:36;;;;;;;4.55;1.80;;;7.00;99.90;;;;;;5109433;28;20027;-70
2022/02/20 08:54:02;;;;;;;6.88;2.25;;;7.10;99.90;;;;;;5103359;28;20020;-70
2022/02/20 08:56:27;;;;;;;2.45;1.23;;;7.10;99.90;;;;;;5106308;28;20486;-68
2022/02/20 08:58:54;;;;;;;9.95;1.75;;;7.20;99.90;;;;;;5090893;28;20096;-68
2022/02/20 09:01:20;;;;;;;2.80;1.30;;;7.20;99.90;;;;;;5107919;28;20016;-68
2022/02/20 09:03:45;;;;;;;1.25;0.85;;;7.30;99.90;;;;;;5108554;28;20376;-68
2022/02/20 09:06:11;;;;;;;11.90;2.25;;;7.30;99.90;;;;;;5103899;28;20095;-68
2022/02/20 09:08:37;;;;;;;3.28;1.63;;;7.40;99.90;;;;;;5112657;28;20027;-69
2022/02/20 09:11:03;;;;;;;3.60;1.55;;;7.50;99.90;;;;;;5083439;28;20387;-68
2022/02/20 09:13:28;;;;;;;7.75;1.85;;;7.40;99.90;;;;;;5105047;28;20015;-68
2022/02/20 09:15:54;;;;;;;3.17;1.60;;;7.50;99.90;;;;;;5094116;28;20028;-68
2022/02/20 09:18:20;;;;;;;3.97;1.45;;;7.50;99.90;;;;;;5106280;28;20058;-69
2022/02/20 09:20:46;;;;;;;6.05;2.15;;;7.50;99.90;;;;;;5092215;28;20055;-68
2022/02/20 09:23:12;;;;;;;5.68;2.63;;;7.60;99.90;;;;;;5112146;27;20032;-68
2022/02/20 09:25:39;;;;;;;4.07;1.50;;;7.60;99.90;;;;;;5108449;28;20038;-68
2022/02/20 09:28:05;;;;;;;3.38;1.45;;;7.70;99.90;;;;;;5104597;27;20483;-68
2022/02/20 09:30:31;;;;;;;1.88;1.08;;;7.80;99.90;;;;;;5110918;27;20062;-68
2022/02/20 09:32:57;;;;;;;1.13;0.90;;;7.80;99.90;;;;;;5098931;27;20051;-68
2022/02/20 09:35:24;;;;;;;6.43;1.05;;;7.80;99.90;;;;;;5087850;28;20020;-68
2022/02/20 09:37:50;;;;;;;6.25;1.90;;;7.90;99.90;;;;;;5105098;28;20024;-68
2022/02/20 09:40:16;;;;;;;3.78;1.38;;;8.00;99.90;;;;;;5113681;27;20020;-68
2022/02/20 09:42:42;;;;;;;4.25;1.33;;;8.00;99.90;;;;;;5101500;28;20032;-68
2022/02/20 09:45:08;;;;;;;6.20;1.77;;;8.00;99.90;;;;;;5094996;27;20070;-69
2022/02/20 09:47:37;;;;;;;5.63;1.83;;;8.10;99.90;;;;;;5096253;28;20035;-69
2022/02/20 09:50:04;;;;;;;2.42;1.35;;;8.10;99.90;;;;;;5110078;27;20052;-67
2022/02/20 09:52:29;;;;;;;3.35;1.50;;;8.10;99.90;;;;;;5115128;27;20023;-68
2022/02/20 09:54:55;;;;;;;1.65;1.00;;;8.20;99.90;;;;;;5095634;28;20058;-68
2022/02/20 09:57:21;;;;;;;3.10;1.35;;;8.30;99.90;;;;;;5100498;27;20495;-68
2022/02/20 09:59:47;;;;;;;2.90;1.05;;;8.30;99.90;;;;;;5103525;27;20039;-68
2022/02/20 10:02:16;;;;;;;5.32;2.08;;;8.30;99.90;;;;;;5108725;27;20024;-67
2022/02/20 10:05:00;;;;;;;3.35;1.60;;;8.30;99.90;;;;;;5085565;28;20067;-67
2022/02/20 10:07:38;;;;;;;2.80;1.30;;;8.30;99.90;;;;;;5103376;27;20076;-68
2022/02/20 10:10:05;;;;;;;1.60;1.20;;;8.30;99.90;;;;;;5100871;28;20051;-67
2022/02/20 10:12:32;;;;;;;9.55;1.95;;;8.40;99.90;;;;;;5103619;27;20019;-67
2022/02/20 10:14:57;;;;;;;1.95;0.95;;;8.40;99.90;;;;;;5098404;27;20020;-67
2022/02/20 10:17:27;;;;;;;3.97;1.70;;;8.40;99.90;;;;;;5102225;28;20045;-67
2022/02/20 10:19:59;;;;;;;1.85;1.08;;;8.40;99.90;;;;;;5100571;27;20028;-67
2022/02/20 10:22:35;;;;;;;2.03;1.15;;;8.40;99.90;;;;;;5105664;27;20682;-67
2022/02/20 10:25:02;;;;;;;3.40;1.23;;;8.50;99.90;;;;;;5098831;28;20248;-67
2022/02/20 10:27:28;;;;;;;2.08;1.00;;;8.50;99.90;;;;;;5105088;28;20142;-67
2022/02/20 10:30:10;;;;;;;2.42;1.10;;;8.50;99.90;;;;;;5083442;28;20119;-67
2022/02/20 10:32:36;;;;;;;6.15;1.67;;;8.60;99.90;;;;;;5105827;27;20377;-67
2022/02/20 10:35:16;;;;;;;4.63;1.48;;;8.60;99.90;;;;;;5108846;27;20073;-67
2022/02/20 10:37:42;;;;;;;7.30;1.25;;;8.70;99.90;;;;;;5095283;27;20120;-67
2022/02/20 10:40:30;;;;;;;3.40;1.25;;;8.70;99.90;;;;;;5095851;27;20032;-67
2022/02/20 10:42:58;;;;;;;2.35;1.27;;;8.70;99.90;;;;;;5084751;28;20084;-68
2022/02/20 10:45:33;;;;;;;8.40;1.65;;;8.80;99.90;;;;;;5104502;27;20032;-67
2022/02/20 10:47:59;;;;;;;7.72;1.30;;;8.80;99.90;;;;;;5103569;28;20077;-67
2022/02/20 10:50:27;;;;;;;6.10;0.93;;;9.00;99.90;;;;;;5101731;27;20023;-67
2022/02/20 10:53:17;;;;;;;3.45;1.50;;;9.00;99.90;;;;;;5097552;28;20408;-67
2022/02/20 10:55:51;;;;;;;3.00;1.40;;;9.10;99.90;;;;;;5103333;27;20546;-67
2022/02/20 10:58:18;;;;;;;2.33;1.20;;;9.10;99.90;;;;;;5084445;28;20178;-66
2022/02/20 11:00:52;;;;;;;6.43;1.20;;;9.10;99.90;;;;;;5103494;27;20094;-66
2022/02/20 11:03:19;;;;;;;2.75;1.33;;;9.10;99.90;;;;;;5101302;27;20027;-67
2022/02/20 11:05:45;;;;;;;2.50;1.52;;;9.20;99.90;;;;;;5093646;27;20679;-67
2022/02/20 11:08:12;;;;;;;6.57;1.65;;;9.20;99.90;;;;;;5108646;27;20130;-66
2022/02/20 11:10:39;;;;;;;1.45;1.00;;;9.20;99.90;;;;;;5085475;28;20055;-66
2022/02/20 11:13:06;;;;;;;4.22;1.33;;;9.20;99.90;;;;;;5110237;27;20019;-66
2022/02/20 11:15:34;;;;;;;4.32;1.60;;;9.20;99.90;;;;;;5109941;27;20020;-66
2022/02/20 11:18:02;;;;;;;7.45;2.28;;;9.20;99.90;;;;;;5110469;27;20019;-67
2022/02/20 11:20:33;;;;;;;3.55;1.60;;;9.20;99.90;;;;;;5099162;27;20026;-66
2022/02/20 11:23:04;;;;;;;4.32;1.58;;;9.20;99.90;;;;;;5108109;27;20070;-66
2022/02/20 11:25:31;;;;;;;7.53;1.70;;;9.20;99.90;;;;;;5108549;27;20027;-66
2022/02/20 11:27:59;;;;;;;1.48;1.13;;;9.30;99.90;;;;;;5091610;28;20051;-66
2022/02/20 11:30:25;;;;;;;2.85;1.20;;;9.20;99.90;;;;;;5085143;27;20482;-66
2022/02/20 11:32:55;;;;;;;5.53;1.75;;;9.30;99.90;;;;;;5110048;27;20029;-66
2022/02/20 11:35:21;;;;;;;5.25;1.67;;;9.40;99.90;;;;;;5094650;27;20040;-66
2022/02/20 11:37:56;;;;;;;2.58;1.25;;;9.40;99.90;;;;;;5110013;27;20419;-66
2022/02/20 11:40:24;;;;;;;2.60;1.25;;;9.50;99.90;;;;;;5083396;28;20028;-66
2022/02/20 11:42:58;;;;;;;5.97;1.90;;;9.50;99.90;;;;;;5092258;27;20374;-66
2022/02/20 11:45:24;;;;;;;4.40;1.60;;;9.60;99.90;;;;;;5092896;27;20024;-66
2022/02/20 11:48:01;;;;;;;6.55;1.92;;;9.60;99.90;;;;;;5104660;27;20555;-66
2022/02/20 11:50:27;;;;;;;1.67;1.02;;;9.70;99.90;;;;;;5086079;27;20051;-66
2022/02/20 11:52:56;;;;;;;4.90;1.40;;;9.60;99.90;;;;;;5103817;27;20063;-66
2022/02/20 11:55:39;;;;;;;6.82;1.25;;;9.60;99.90;;;;;;5104769;27;20098;-66
2022/02/20 11:58:11;;;;;;;3.10;1.33;;;9.50;99.90;;;;;;5090204;27;20023;-66
2022/02/20 12:00:57;;;;;;;6.68;1.85;;;9.50;99.90;;;;;;5111536;27;20027;-66
2022/02/20 12:04:01;;;;;;;2.80;1.13;;;9.50;99.90;;;;;;5108043;27;20039;-66
2022/02/20 12:06:28;;;;;;;1.05;0.93;;;9.40;99.90;;;;;;5089149;27;20568;-66
2022/02/20 12:08:58;;;;;;;2.60;1.17;;;9.40;99.90;;;;;;5109708;27;20023;-66
2022/02/20 12:11:49;;;;;;;2.60;0.98;;;9.40;99.90;;;;;;5108500;27;20031;-66
2022/02/20 12:14:16;;;;;;;1.00;0.85;;;9.50;99.90;;;;;;5004645;28;20026;-67
2022/02/20 12:16:48;;;;;;;0.98;0.75;;;9.60;99.90;;;;;;4998543;28;20555;-66
2022/02/20 12:19:16;;;;;;;2.13;0.80;;;9.60;99.90;;;;;;5003287;28;20188;-66
2022/02/20 12:22:00;;;;;;;14.57;1.95;;;9.50;99.90;;;;;;4999448;28;20521;-66
2022/02/20 12:25:04;;;;;;;10.43;1.92;;;9.60;99.90;;;;;;4997202;28;20129;-66
2022/02/20 12:27:38;;;;;;;6.00;1.58;;;9.60;99.90;;;;;;4994399;28;20518;-66
2022/02/20 12:30:14;;;;;;;4.35;1.30;;;9.60;99.90;;;;;;4998210;28;20045;-66
2022/02/20 12:32:42;;;;;;;2.42;1.15;;;9.60;99.90;;;;;;5000927;28;20375;-66
2022/02/20 12:35:15;;;;;;;1.75;1.00;;;9.50;99.90;;;;;;5001062;28;20027;-66
2022/02/20 12:37:44;;;;;;;4.07;1.10;;;9.50;99.90;;;;;;4986000;28;20034;-66
2022/02/20 12:40:11;;;;;;;4.07;0.95;;;9.40;99.90;;;;;;4998304;28;20046;-66
2022/02/20 12:42:55;;;;;;;3.28;1.33;;;9.50;99.90;;;;;;4993346;28;20036;-66
2022/02/20 12:45:29;;;;;;;4.20;1.35;;;9.50;99.90;;;;;;5001027;28;20566;-66
2022/02/20 12:47:56;;;;;;;1.13;0.90;;;9.60;99.90;;;;;;4999354;28;20026;-66
2022/02/20 12:50:27;;;;;;;2.92;1.10;;;9.60;99.90;;;;;;5010681;28;20055;-66
2022/02/20 12:52:55;;;;;;;3.10;0.90;;;9.70;99.90;;;;;;5080129;28;20041;-66
2022/02/20 12:55:21;;;;;;;2.85;1.40;;;9.70;99.90;;;;;;5098307;28;20531;-67